sensor_id;sensor_type;location;lat;lon;timestamp;P1;durP1;ratioP1;P2;durP2;ratioP2
31768;SDS011;18342;52.132;21.048;2022-09-09T00:01:35;12.60;;;5.87;;
31768;SDS011;18342;52.132;21.048;2022-09-09T00:04:27;11.27;;;6.20;;
31768;SDS011;18342;52.132;21.048;2022-09-09T00:07:07;11.37;;;5.93;;
31768;SDS011;18342;52.132;21.048;2022-09-09T00:09:57;14.27;;;6.53;;
31768;SDS011;18342;52.132;21.048;2022-09-09T00:23:53;10.80;;;6.07;;
31768;SDS011;18342;52.132;21.048;2022-09-09T00:26:39;11.60;;;6.50;;
31768;SDS011;18342;52.132;21.048;2022-09-09T00:29:14;11.77;;;6.67;;
31768;SDS011;18342;52.132;21.048;2022-09-09T00:32:05;15.27;;;6.80;;
31768;SDS011;18342;52.132;21.048;2022-09-09T00:34:46;12.03;;;6.87;;
31768;SDS011;18342;52.132;21.048;2022-09-09T00:37:35;12.20;;;7.27;;
31768;SDS011;18342;52.132;21.048;2022-09-09T00:40:04;13.23;;;7.40;;
31768;SDS011;18342;52.132;21.048;2022-09-09T00:42:47;18.23;;;7.87;;
31768;SDS011;18342;52.132;21.048;2022-09-09T00:46:14;13.10;;;7.30;;
31768;SDS011;18342;52.132;21.048;2022-09-09T00:48:52;10.93;;;6.70;;
31768;SDS011;18342;52.132;21.048;2022-09-09T00:59:50;14.17;;;7.63;;
31768;SDS011;18342;52.132;21.048;2022-09-09T01:04:54;15.70;;;7.60;;
31768;SDS011;18342;52.132;21.048;2022-09-09T01:07:22;10.77;;;7.23;;
31768;SDS011;18342;52.132;21.048;2022-09-09T01:10:07;12.10;;;7.43;;
31768;SDS011;18342;52.132;21.048;2022-09-09T01:12:55;13.37;;;7.60;;
31768;SDS011;18342;52.132;21.048;2022-09-09T01:15:28;12.70;;;8.40;;
31768;SDS011;18342;52.132;21.048;2022-09-09T01:26:15;15.80;;;8.53;;
31768;SDS011;18342;52.132;21.048;2022-09-09T01:28:55;16.00;;;8.27;;
31768;SDS011;18342;52.132;21.048;2022-09-09T01:31:27;14.93;;;7.90;;
31768;SDS011;18342;52.132;21.048;2022-09-09T01:33:59;14.80;;;8.97;;
31768;SDS011;18342;52.132;21.048;2022-09-09T01:36:48;16.80;;;7.87;;
31768;SDS011;18342;52.132;21.048;2022-09-09T01:39:21;14.90;;;8.40;;
31768;SDS011;18342;52.132;21.048;2022-09-09T01:41:47;12.50;;;7.53;;
31768;SDS011;18342;52.132;21.048;2022-09-09T01:44:13;11.87;;;8.03;;
31768;SDS011;18342;52.132;21.048;2022-09-09T01:46:39;11.80;;;7.33;;
31768;SDS011;18342;52.132;21.048;2022-09-09T01:49:06;13.60;;;8.63;;
31768;SDS011;18342;52.132;21.048;2022-09-09T01:51:33;13.53;;;8.00;;
31768;SDS011;18342;52.132;21.048;2022-09-09T01:54:00;12.57;;;7.50;;
31768;SDS011;18342;52.132;21.048;2022-09-09T01:59:31;13.93;;;8.30;;
31768;SDS011;18342;52.132;21.048;2022-09-09T02:05:55;14.80;;;7.97;;
31768;SDS011;18342;52.132;21.048;2022-09-09T02:08:46;16.20;;;8.10;;
31768;SDS011;18342;52.132;21.048;2022-09-09T02:11:15;15.17;;;8.17;;
31768;SDS011;18342;52.132;21.048;2022-09-09T02:13:43;15.87;;;8.70;;
31768;SDS011;18342;52.132;21.048;2022-09-09T02:16:12;13.30;;;8.10;;
31768;SDS011;18342;52.132;21.048;2022-09-09T02:21:33;16.77;;;9.27;;
31768;SDS011;18342;52.132;21.048;2022-09-09T02:24:14;16.33;;;8.77;;
31768;SDS011;18342;52.132;21.048;2022-09-09T02:26:47;15.93;;;8.17;;
31768;SDS011;18342;52.132;21.048;2022-09-09T02:29:23;18.10;;;9.30;;
31768;SDS011;18342;52.132;21.048;2022-09-09T02:31:55;16.07;;;9.37;;
31768;SDS011;18342;52.132;21.048;2022-09-09T02:34:28;17.27;;;9.50;;
31768;SDS011;18342;52.132;21.048;2022-09-09T02:37:01;15.93;;;9.20;;
31768;SDS011;18342;52.132;21.048;2022-09-09T02:39:31;15.03;;;9.20;;
31768;SDS011;18342;52.132;21.048;2022-09-09T02:41:57;16.87;;;9.50;;
31768;SDS011;18342;52.132;21.048;2022-09-09T02:44:26;14.50;;;9.53;;
31768;SDS011;18342;52.132;21.048;2022-09-09T02:46:57;16.13;;;8.87;;
31768;SDS011;18342;52.132;21.048;2022-09-09T02:58:05;15.97;;;8.97;;
31768;SDS011;18342;52.132;21.048;2022-09-09T03:00:36;15.40;;;8.60;;
31768;SDS011;18342;52.132;21.048;2022-09-09T03:03:04;14.77;;;8.97;;
31768;SDS011;18342;52.132;21.048;2022-09-09T03:05:35;13.67;;;8.40;;
31768;SDS011;18342;52.132;21.048;2022-09-09T03:08:05;14.30;;;9.47;;
31768;SDS011;18342;52.132;21.048;2022-09-09T03:13:10;13.13;;;8.50;;
31768;SDS011;18342;52.132;21.048;2022-09-09T03:15:41;15.70;;;8.90;;
31768;SDS011;18342;52.132;21.048;2022-09-09T03:18:07;14.17;;;7.87;;
31768;SDS011;18342;52.132;21.048;2022-09-09T03:20:33;11.93;;;7.97;;
31768;SDS011;18342;52.132;21.048;2022-09-09T03:22:59;14.57;;;8.20;;
31768;SDS011;18342;52.132;21.048;2022-09-09T03:25:26;10.40;;;7.67;;
31768;SDS011;18342;52.132;21.048;2022-09-09T03:28:01;14.77;;;8.23;;
31768;SDS011;18342;52.132;21.048;2022-09-09T03:30:27;13.47;;;8.13;;
31768;SDS011;18342;52.132;21.048;2022-09-09T03:32:53;13.60;;;8.63;;
31768;SDS011;18342;52.132;21.048;2022-09-09T03:35:20;15.90;;;8.80;;
31768;SDS011;18342;52.132;21.048;2022-09-09T03:37:49;11.50;;;7.87;;
31768;SDS011;18342;52.132;21.048;2022-09-09T03:40:15;11.90;;;7.67;;
31768;SDS011;18342;52.132;21.048;2022-09-09T03:42:41;14.43;;;8.43;;
31768;SDS011;18342;52.132;21.048;2022-09-09T03:45:08;15.20;;;8.83;;
31768;SDS011;18342;52.132;21.048;2022-09-09T03:47:37;12.00;;;8.57;;
31768;SDS011;18342;52.132;21.048;2022-09-09T03:50:04;10.97;;;7.83;;
31768;SDS011;18342;52.132;21.048;2022-09-09T03:52:34;12.30;;;8.13;;
31768;SDS011;18342;52.132;21.048;2022-09-09T03:55:04;10.93;;;7.70;;
31768;SDS011;18342;52.132;21.048;2022-09-09T03:57:31;14.13;;;8.30;;
31768;SDS011;18342;52.132;21.048;2022-09-09T04:00:03;11.33;;;7.93;;
31768;SDS011;18342;52.132;21.048;2022-09-09T04:02:30;13.20;;;8.30;;
31768;SDS011;18342;52.132;21.048;2022-09-09T04:04:56;12.73;;;7.33;;
31768;SDS011;18342;52.132;21.048;2022-09-09T04:07:28;11.00;;;7.47;;
31768;SDS011;18342;52.132;21.048;2022-09-09T04:09:54;10.43;;;7.27;;
31768;SDS011;18342;52.132;21.048;2022-09-09T04:12:20;10.07;;;7.10;;
31768;SDS011;18342;52.132;21.048;2022-09-09T04:14:50;10.50;;;7.20;;
31768;SDS011;18342;52.132;21.048;2022-09-09T04:17:18;15.33;;;7.87;;
31768;SDS011;18342;52.132;21.048;2022-09-09T04:19:47;12.77;;;7.00;;
31768;SDS011;18342;52.132;21.048;2022-09-09T04:22:13;10.53;;;6.90;;
31768;SDS011;18342;52.132;21.048;2022-09-09T04:24:39;10.83;;;7.13;;
31768;SDS011;18342;52.132;21.048;2022-09-09T04:27:07;8.10;;;6.50;;
31768;SDS011;18342;52.132;21.048;2022-09-09T04:29:33;10.53;;;7.40;;
31768;SDS011;18342;52.132;21.048;2022-09-09T04:31:59;9.93;;;6.77;;
31768;SDS011;18342;52.132;21.048;2022-09-09T04:34:25;10.03;;;7.07;;
31768;SDS011;18342;52.132;21.048;2022-09-09T04:36:51;9.10;;;6.70;;
31768;SDS011;18342;52.132;21.048;2022-09-09T04:39:17;9.87;;;6.50;;
31768;SDS011;18342;52.132;21.048;2022-09-09T04:41:44;10.63;;;7.30;;
31768;SDS011;18342;52.132;21.048;2022-09-09T04:44:10;10.97;;;6.70;;
31768;SDS011;18342;52.132;21.048;2022-09-09T04:46:36;10.83;;;7.37;;
31768;SDS011;18342;52.132;21.048;2022-09-09T04:49:02;10.65;;;7.90;;
31768;SDS011;18342;52.132;21.048;2022-09-09T04:51:29;9.93;;;7.10;;
31768;SDS011;18342;52.132;21.048;2022-09-09T04:53:56;8.97;;;6.90;;
31768;SDS011;18342;52.132;21.048;2022-09-09T04:56:24;12.43;;;6.87;;
31768;SDS011;18342;52.132;21.048;2022-09-09T04:58:52;9.20;;;6.90;;
31768;SDS011;18342;52.132;21.048;2022-09-09T05:01:18;10.97;;;6.70;;
31768;SDS011;18342;52.132;21.048;2022-09-09T05:03:47;10.50;;;6.23;;
31768;SDS011;18342;52.132;21.048;2022-09-09T05:06:18;12.33;;;6.33;;
31768;SDS011;18342;52.132;21.048;2022-09-09T05:08:45;8.63;;;6.37;;
31768;SDS011;18342;52.132;21.048;2022-09-09T05:13:44;12.00;;;6.13;;
31768;SDS011;18342;52.132;21.048;2022-09-09T05:16:11;9.77;;;6.77;;
31768;SDS011;18342;52.132;21.048;2022-09-09T05:18:40;8.53;;;6.30;;
31768;SDS011;18342;52.132;21.048;2022-09-09T05:21:11;7.60;;;6.20;;
31768;SDS011;18342;52.132;21.048;2022-09-09T05:23:38;9.13;;;5.93;;
31768;SDS011;18342;52.132;21.048;2022-09-09T05:26:04;8.73;;;6.23;;
31768;SDS011;18342;52.132;21.048;2022-09-09T05:28:34;8.13;;;6.27;;
31768;SDS011;18342;52.132;21.048;2022-09-09T05:31:01;7.63;;;5.83;;
31768;SDS011;18342;52.132;21.048;2022-09-09T05:33:30;6.80;;;5.40;;
31768;SDS011;18342;52.132;21.048;2022-09-09T05:35:57;10.07;;;6.50;;
31768;SDS011;18342;52.132;21.048;2022-09-09T05:38:29;9.57;;;6.10;;
31768;SDS011;18342;52.132;21.048;2022-09-09T05:40:56;11.00;;;6.03;;
31768;SDS011;18342;52.132;21.048;2022-09-09T05:43:23;7.93;;;5.70;;
31768;SDS011;18342;52.132;21.048;2022-09-09T05:45:58;8.90;;;5.40;;
31768;SDS011;18342;52.132;21.048;2022-09-09T05:48:34;6.63;;;5.60;;
31768;SDS011;18342;52.132;21.048;2022-09-09T05:51:02;7.43;;;5.97;;
31768;SDS011;18342;52.132;21.048;2022-09-09T05:53:29;7.50;;;5.77;;
31768;SDS011;18342;52.132;21.048;2022-09-09T05:56:00;8.03;;;5.97;;
31768;SDS011;18342;52.132;21.048;2022-09-09T05:58:54;6.87;;;5.23;;
31768;SDS011;18342;52.132;21.048;2022-09-09T06:01:25;10.50;;;5.67;;
31768;SDS011;18342;52.132;21.048;2022-09-09T06:03:56;10.47;;;5.73;;
31768;SDS011;18342;52.132;21.048;2022-09-09T06:06:24;7.07;;;5.63;;
31768;SDS011;18342;52.132;21.048;2022-09-09T06:08:52;7.90;;;6.00;;
31768;SDS011;18342;52.132;21.048;2022-09-09T06:11:26;8.93;;;6.27;;
31768;SDS011;18342;52.132;21.048;2022-09-09T06:13:56;7.20;;;6.10;;
31768;SDS011;18342;52.132;21.048;2022-09-09T06:16:23;6.90;;;5.80;;
31768;SDS011;18342;52.132;21.048;2022-09-09T06:18:53;9.87;;;6.67;;
31768;SDS011;18342;52.132;21.048;2022-09-09T06:21:24;8.87;;;6.40;;
31768;SDS011;18342;52.132;21.048;2022-09-09T06:23:51;7.90;;;5.97;;
31768;SDS011;18342;52.132;21.048;2022-09-09T06:26:25;8.53;;;6.23;;
31768;SDS011;18342;52.132;21.048;2022-09-09T06:28:52;8.63;;;6.77;;
31768;SDS011;18342;52.132;21.048;2022-09-09T06:31:23;10.30;;;7.07;;
31768;SDS011;18342;52.132;21.048;2022-09-09T06:33:52;8.40;;;7.00;;
31768;SDS011;18342;52.132;21.048;2022-09-09T06:36:26;8.87;;;7.10;;
31768;SDS011;18342;52.132;21.048;2022-09-09T06:38:54;14.37;;;7.57;;
31768;SDS011;18342;52.132;21.048;2022-09-09T06:41:21;9.77;;;6.80;;
31768;SDS011;18342;52.132;21.048;2022-09-09T06:43:48;9.90;;;7.07;;
31768;SDS011;18342;52.132;21.048;2022-09-09T06:48:42;9.00;;;7.60;;
31768;SDS011;18342;52.132;21.048;2022-09-09T06:53:45;10.90;;;7.53;;
31768;SDS011;18342;52.132;21.048;2022-09-09T06:56:17;10.23;;;8.17;;
31768;SDS011;18342;52.132;21.048;2022-09-09T06:58:47;13.47;;;8.77;;
31768;SDS011;18342;52.132;21.048;2022-09-09T07:01:18;13.37;;;8.47;;
31768;SDS011;18342;52.132;21.048;2022-09-09T07:03:46;9.93;;;8.17;;
31768;SDS011;18342;52.132;21.048;2022-09-09T07:06:14;11.70;;;8.53;;
31768;SDS011;18342;52.132;21.048;2022-09-09T07:08:48;10.90;;;8.50;;
31768;SDS011;18342;52.132;21.048;2022-09-09T07:11:15;12.83;;;8.53;;
31768;SDS011;18342;52.132;21.048;2022-09-09T07:13:42;11.37;;;8.57;;
31768;SDS011;18342;52.132;21.048;2022-09-09T07:16:08;15.57;;;9.03;;
31768;SDS011;18342;52.132;21.048;2022-09-09T07:18:36;10.90;;;8.60;;
31768;SDS011;18342;52.132;21.048;2022-09-09T07:21:05;10.60;;;8.60;;
31768;SDS011;18342;52.132;21.048;2022-09-09T07:23:33;11.33;;;8.53;;
31768;SDS011;18342;52.132;21.048;2022-09-09T07:26:07;11.93;;;8.93;;
31768;SDS011;18342;52.132;21.048;2022-09-09T07:28:46;14.57;;;9.10;;
31768;SDS011;18342;52.132;21.048;2022-09-09T07:31:22;12.63;;;9.10;;
31768;SDS011;18342;52.132;21.048;2022-09-09T07:33:51;15.43;;;9.37;;
31768;SDS011;18342;52.132;21.048;2022-09-09T07:36:21;13.60;;;9.77;;
31768;SDS011;18342;52.132;21.048;2022-09-09T07:38:50;15.27;;;9.77;;
31768;SDS011;18342;52.132;21.048;2022-09-09T07:41:18;12.97;;;9.50;;
31768;SDS011;18342;52.132;21.048;2022-09-09T07:43:47;12.03;;;9.93;;
31768;SDS011;18342;52.132;21.048;2022-09-09T07:46:14;12.63;;;9.90;;
31768;SDS011;18342;52.132;21.048;2022-09-09T07:48:49;14.52;;;11.43;;
31768;SDS011;18342;52.132;21.048;2022-09-09T07:51:19;15.53;;;10.37;;
31768;SDS011;18342;52.132;21.048;2022-09-09T07:53:53;13.73;;;9.70;;
31768;SDS011;18342;52.132;21.048;2022-09-09T07:56:20;14.37;;;10.13;;
31768;SDS011;18342;52.132;21.048;2022-09-09T07:58:50;14.63;;;10.20;;
31768;SDS011;18342;52.132;21.048;2022-09-09T08:01:18;13.77;;;10.60;;
31768;SDS011;18342;52.132;21.048;2022-09-09T08:03:46;15.97;;;10.50;;
31768;SDS011;18342;52.132;21.048;2022-09-09T08:06:17;15.00;;;10.80;;
31768;SDS011;18342;52.132;21.048;2022-09-09T08:08:49;14.70;;;10.40;;
31768;SDS011;18342;52.132;21.048;2022-09-09T08:11:20;15.43;;;10.73;;
31768;SDS011;18342;52.132;21.048;2022-09-09T08:13:48;16.57;;;11.30;;
31768;SDS011;18342;52.132;21.048;2022-09-09T08:16:17;15.37;;;11.40;;
31768;SDS011;18342;52.132;21.048;2022-09-09T08:18:46;16.37;;;12.30;;
31768;SDS011;18342;52.132;21.048;2022-09-09T08:21:17;16.03;;;11.57;;
31768;SDS011;18342;52.132;21.048;2022-09-09T08:23:49;16.40;;;12.30;;
31768;SDS011;18342;52.132;21.048;2022-09-09T08:26:24;15.93;;;11.67;;
31768;SDS011;18342;52.132;21.048;2022-09-09T08:28:54;20.43;;;12.53;;
31768;SDS011;18342;52.132;21.048;2022-09-09T08:33:56;21.30;;;12.87;;
31768;SDS011;18342;52.132;21.048;2022-09-09T08:36:25;20.27;;;13.13;;
31768;SDS011;18342;52.132;21.048;2022-09-09T08:38:54;22.83;;;12.97;;
31768;SDS011;18342;52.132;21.048;2022-09-09T08:44:37;16.93;;;12.27;;
31768;SDS011;18342;52.132;21.048;2022-09-09T09:12:27;22.93;;;13.60;;
31768;SDS011;18342;52.132;21.048;2022-09-09T09:14:58;20.23;;;13.93;;
31768;SDS011;18342;52.132;21.048;2022-09-09T09:17:25;21.43;;;13.87;;
31768;SDS011;18342;52.132;21.048;2022-09-09T09:19:56;25.50;;;15.40;;
31768;SDS011;18342;52.132;21.048;2022-09-09T09:22:57;22.83;;;15.03;;
31768;SDS011;18342;52.132;21.048;2022-09-09T09:25:21;21.50;;;14.53;;
31768;SDS011;18342;52.132;21.048;2022-09-09T09:28:02;21.03;;;15.40;;
31768;SDS011;18342;52.132;21.048;2022-09-09T09:30:54;20.93;;;14.60;;
31768;SDS011;18342;52.132;21.048;2022-09-09T09:36:06;22.83;;;15.53;;
31768;SDS011;18342;52.132;21.048;2022-09-09T09:38:33;22.57;;;15.47;;
31768;SDS011;18342;52.132;21.048;2022-09-09T09:41:00;25.77;;;16.33;;
31768;SDS011;18342;52.132;21.048;2022-09-09T09:43:30;24.93;;;14.53;;
31768;SDS011;18342;52.132;21.048;2022-09-09T09:46:04;25.97;;;15.83;;
31768;SDS011;18342;52.132;21.048;2022-09-09T09:48:30;23.70;;;15.77;;
31768;SDS011;18342;52.132;21.048;2022-09-09T09:50:58;25.67;;;16.47;;
31768;SDS011;18342;52.132;21.048;2022-09-09T09:53:33;26.47;;;17.37;;
31768;SDS011;18342;52.132;21.048;2022-09-09T09:56:11;26.67;;;17.40;;
31768;SDS011;18342;52.132;21.048;2022-09-09T10:03:51;25.10;;;16.57;;
31768;SDS011;18342;52.132;21.048;2022-09-09T10:06:37;24.37;;;15.93;;
31768;SDS011;18342;52.132;21.048;2022-09-09T10:09:26;26.23;;;15.93;;
31768;SDS011;18342;52.132;21.048;2022-09-09T10:14:48;29.80;;;18.60;;
31768;SDS011;18342;52.132;21.048;2022-09-09T10:17:35;28.73;;;18.40;;
31768;SDS011;18342;52.132;21.048;2022-09-09T10:20:39;27.97;;;18.03;;
31768;SDS011;18342;52.132;21.048;2022-09-09T10:24:14;29.97;;;18.50;;
31768;SDS011;18342;52.132;21.048;2022-09-09T10:28:53;30.00;;;19.00;;
31768;SDS011;18342;52.132;21.048;2022-09-09T10:34:12;31.57;;;20.77;;
31768;SDS011;18342;52.132;21.048;2022-09-09T10:36:57;36.23;;;21.80;;
31768;SDS011;18342;52.132;21.048;2022-09-09T10:39:45;33.23;;;21.00;;
31768;SDS011;18342;52.132;21.048;2022-09-09T10:42:13;33.77;;;21.83;;
31768;SDS011;18342;52.132;21.048;2022-09-09T10:55:51;38.00;;;22.43;;
31768;SDS011;18342;52.132;21.048;2022-09-09T10:58:28;33.47;;;21.90;;
31768;SDS011;18342;52.132;21.048;2022-09-09T11:01:16;36.60;;;21.80;;
31768;SDS011;18342;52.132;21.048;2022-09-09T11:03:47;38.13;;;24.50;;
31768;SDS011;18342;52.132;21.048;2022-09-09T11:06:20;38.60;;;22.57;;
31768;SDS011;18342;52.132;21.048;2022-09-09T11:08:50;37.60;;;24.00;;
31768;SDS011;18342;52.132;21.048;2022-09-09T11:11:26;34.67;;;22.53;;
31768;SDS011;18342;52.132;21.048;2022-09-09T11:14:11;34.03;;;22.00;;
31768;SDS011;18342;52.132;21.048;2022-09-09T11:22:00;46.67;;;25.40;;
31768;SDS011;18342;52.132;21.048;2022-09-09T11:24:32;44.07;;;24.17;;
31768;SDS011;18342;52.132;21.048;2022-09-09T11:40:27;45.57;;;25.07;;
31768;SDS011;18342;52.132;21.048;2022-09-09T11:45:31;48.53;;;28.27;;
31768;SDS011;18342;52.132;21.048;2022-09-09T11:47:59;46.73;;;26.87;;
31768;SDS011;18342;52.132;21.048;2022-09-09T11:55:39;49.73;;;26.23;;
31768;SDS011;18342;52.132;21.048;2022-09-09T12:00:40;48.27;;;27.97;;
31768;SDS011;18342;52.132;21.048;2022-09-09T12:08:40;52.90;;;29.13;;
31768;SDS011;18342;52.132;21.048;2022-09-09T12:11:09;53.10;;;29.20;;
31768;SDS011;18342;52.132;21.048;2022-09-09T12:13:36;51.23;;;28.30;;
31768;SDS011;18342;52.132;21.048;2022-09-09T12:16:01;53.47;;;29.03;;
31768;SDS011;18342;52.132;21.048;2022-09-09T12:18:34;53.00;;;29.27;;
31768;SDS011;18342;52.132;21.048;2022-09-09T12:24:00;52.97;;;27.27;;
31768;SDS011;18342;52.132;21.048;2022-09-09T12:26:47;47.93;;;27.73;;
31768;SDS011;18342;52.132;21.048;2022-09-09T12:37:13;59.00;;;30.57;;
31768;SDS011;18342;52.132;21.048;2022-09-09T12:39:51;51.87;;;27.83;;
31768;SDS011;18342;52.132;21.048;2022-09-09T12:42:24;54.50;;;30.10;;
31768;SDS011;18342;52.132;21.048;2022-09-09T12:44:55;49.17;;;27.63;;
31768;SDS011;18342;52.132;21.048;2022-09-09T12:50:14;56.33;;;30.60;;
31768;SDS011;18342;52.132;21.048;2022-09-09T12:52:46;53.97;;;28.30;;
31768;SDS011;18342;52.132;21.048;2022-09-09T12:55:20;54.27;;;30.10;;
31768;SDS011;18342;52.132;21.048;2022-09-09T12:57:50;60.10;;;32.33;;
31768;SDS011;18342;52.132;21.048;2022-09-09T13:00:18;55.87;;;30.73;;
31768;SDS011;18342;52.132;21.048;2022-09-09T13:02:51;52.77;;;30.10;;
31768;SDS011;18342;52.132;21.048;2022-09-09T13:05:21;52.87;;;30.40;;
31768;SDS011;18342;52.132;21.048;2022-09-09T13:07:51;54.43;;;29.77;;
31768;SDS011;18342;52.132;21.048;2022-09-09T13:10:27;58.13;;;29.60;;
31768;SDS011;18342;52.132;21.048;2022-09-09T13:12:56;55.23;;;30.50;;
31768;SDS011;18342;52.132;21.048;2022-09-09T13:15:24;56.90;;;30.67;;
31768;SDS011;18342;52.132;21.048;2022-09-09T13:18:00;56.37;;;30.57;;
31768;SDS011;18342;52.132;21.048;2022-09-09T13:20:33;52.33;;;28.50;;
31768;SDS011;18342;52.132;21.048;2022-09-09T13:22:58;57.97;;;31.47;;
31768;SDS011;18342;52.132;21.048;2022-09-09T13:25:26;50.00;;;28.90;;
31768;SDS011;18342;52.132;21.048;2022-09-09T13:36:26;45.57;;;27.23;;
31768;SDS011;18342;52.132;21.048;2022-09-09T13:38:37;58.63;;;28.53;;
31768;SDS011;18342;52.132;21.048;2022-09-09T13:41:09;49.77;;;27.00;;
31768;SDS011;18342;52.132;21.048;2022-09-09T13:43:45;51.73;;;25.87;;
31768;SDS011;18342;52.132;21.048;2022-09-09T13:51:35;50.30;;;24.93;;
31768;SDS011;18342;52.132;21.048;2022-09-09T13:54:11;51.47;;;25.80;;
31768;SDS011;18342;52.132;21.048;2022-09-09T13:56:38;52.87;;;25.77;;
31768;SDS011;18342;52.132;21.048;2022-09-09T13:59:08;46.50;;;23.90;;
31768;SDS011;18342;52.132;21.048;2022-09-09T14:01:36;52.53;;;26.17;;
31768;SDS011;18342;52.132;21.048;2022-09-09T14:04:02;46.23;;;25.17;;
31768;SDS011;18342;52.132;21.048;2022-09-09T14:06:28;50.33;;;26.73;;
31768;SDS011;18342;52.132;21.048;2022-09-09T14:08:54;49.17;;;24.33;;
31768;SDS011;18342;52.132;21.048;2022-09-09T14:11:21;46.40;;;25.70;;
31768;SDS011;18342;52.132;21.048;2022-09-09T14:13:47;53.77;;;25.97;;
31768;SDS011;18342;52.132;21.048;2022-09-09T14:16:15;48.93;;;24.67;;
31768;SDS011;18342;52.132;21.048;2022-09-09T14:18:42;51.07;;;25.70;;
31768;SDS011;18342;52.132;21.048;2022-09-09T14:21:09;51.83;;;27.27;;
31768;SDS011;18342;52.132;21.048;2022-09-09T14:23:35;46.67;;;25.50;;
31768;SDS011;18342;52.132;21.048;2022-09-09T14:26:01;49.83;;;24.67;;
31768;SDS011;18342;52.132;21.048;2022-09-09T14:28:26;48.47;;;26.17;;
31768;SDS011;18342;52.132;21.048;2022-09-09T14:30:53;53.80;;;26.07;;
31768;SDS011;18342;52.132;21.048;2022-09-09T14:33:19;53.30;;;26.53;;
31768;SDS011;18342;52.132;21.048;2022-09-09T14:35:44;57.50;;;26.67;;
31768;SDS011;18342;52.132;21.048;2022-09-09T14:38:10;47.93;;;23.90;;
31768;SDS011;18342;52.132;21.048;2022-09-09T14:40:36;53.90;;;26.70;;
31768;SDS011;18342;52.132;21.048;2022-09-09T14:43:03;53.37;;;26.97;;
31768;SDS011;18342;52.132;21.048;2022-09-09T14:45:30;48.90;;;26.23;;
31768;SDS011;18342;52.132;21.048;2022-09-09T14:47:56;53.03;;;26.63;;
31768;SDS011;18342;52.132;21.048;2022-09-09T14:50:23;55.93;;;27.77;;
31768;SDS011;18342;52.132;21.048;2022-09-09T14:52:49;61.17;;;25.67;;
31768;SDS011;18342;52.132;21.048;2022-09-09T14:55:15;58.73;;;27.73;;
31768;SDS011;18342;52.132;21.048;2022-09-09T14:57:41;50.73;;;25.87;;
31768;SDS011;18342;52.132;21.048;2022-09-09T15:00:08;48.10;;;24.90;;
31768;SDS011;18342;52.132;21.048;2022-09-09T15:02:35;51.43;;;26.07;;
31768;SDS011;18342;52.132;21.048;2022-09-09T15:05:00;57.73;;;27.87;;
31768;SDS011;18342;52.132;21.048;2022-09-09T15:07:26;49.47;;;24.23;;
31768;SDS011;18342;52.132;21.048;2022-09-09T15:09:53;52.90;;;27.23;;
31768;SDS011;18342;52.132;21.048;2022-09-09T15:12:20;56.43;;;27.63;;
31768;SDS011;18342;52.132;21.048;2022-09-09T15:14:45;52.30;;;26.67;;
31768;SDS011;18342;52.132;21.048;2022-09-09T15:17:12;61.50;;;26.67;;
31768;SDS011;18342;52.132;21.048;2022-09-09T15:19:37;56.03;;;27.27;;
31768;SDS011;18342;52.132;21.048;2022-09-09T15:22:04;54.10;;;27.08;;
31768;SDS011;18342;52.132;21.048;2022-09-09T15:24:31;46.27;;;25.70;;
31768;SDS011;18342;52.132;21.048;2022-09-09T15:26:57;41.20;;;23.33;;
31768;SDS011;18342;52.132;21.048;2022-09-09T15:29:23;50.53;;;24.70;;
31768;SDS011;18342;52.132;21.048;2022-09-09T15:31:49;45.37;;;25.20;;
31768;SDS011;18342;52.132;21.048;2022-09-09T15:34:15;51.60;;;26.83;;
31768;SDS011;18342;52.132;21.048;2022-09-09T15:36:41;41.50;;;23.90;;
31768;SDS011;18342;52.132;21.048;2022-09-09T15:39:10;39.97;;;22.47;;
31768;SDS011;18342;52.132;21.048;2022-09-09T15:41:38;46.13;;;24.00;;
31768;SDS011;18342;52.132;21.048;2022-09-09T15:44:04;51.47;;;25.43;;
31768;SDS011;18342;52.132;21.048;2022-09-09T15:49:08;43.30;;;25.10;;
31768;SDS011;18342;52.132;21.048;2022-09-09T15:51:35;47.13;;;25.80;;
31768;SDS011;18342;52.132;21.048;2022-09-09T15:54:02;49.77;;;26.07;;
31768;SDS011;18342;52.132;21.048;2022-09-09T15:56:29;48.30;;;25.47;;
31768;SDS011;18342;52.132;21.048;2022-09-09T15:58:56;49.40;;;26.33;;
31768;SDS011;18342;52.132;21.048;2022-09-09T16:01:22;46.53;;;24.60;;
31768;SDS011;18342;52.132;21.048;2022-09-09T16:03:48;48.37;;;26.27;;
31768;SDS011;18342;52.132;21.048;2022-09-09T16:06:18;51.43;;;26.53;;
31768;SDS011;18342;52.132;21.048;2022-09-09T16:08:46;45.83;;;25.33;;
31768;SDS011;18342;52.132;21.048;2022-09-09T16:11:19;48.83;;;26.77;;
31768;SDS011;18342;52.132;21.048;2022-09-09T16:13:47;45.63;;;26.13;;
31768;SDS011;18342;52.132;21.048;2022-09-09T16:16:14;49.63;;;25.80;;
31768;SDS011;18342;52.132;21.048;2022-09-09T16:18:43;53.60;;;27.57;;
31768;SDS011;18342;52.132;21.048;2022-09-09T16:21:35;47.37;;;24.70;;
31768;SDS011;18342;52.132;21.048;2022-09-09T16:24:02;42.93;;;23.97;;
31768;SDS011;18342;52.132;21.048;2022-09-09T16:26:30;44.67;;;25.53;;
31768;SDS011;18342;52.132;21.048;2022-09-09T16:28:58;45.33;;;25.13;;
31768;SDS011;18342;52.132;21.048;2022-09-09T16:31:26;41.23;;;22.67;;
31768;SDS011;18342;52.132;21.048;2022-09-09T16:33:52;43.20;;;24.97;;
31768;SDS011;18342;52.132;21.048;2022-09-09T16:36:22;42.90;;;25.33;;
31768;SDS011;18342;52.132;21.048;2022-09-09T16:38:53;40.07;;;23.90;;
31768;SDS011;18342;52.132;21.048;2022-09-09T16:41:27;43.80;;;25.20;;
31768;SDS011;18342;52.132;21.048;2022-09-09T16:46:21;36.27;;;21.63;;
31768;SDS011;18342;52.132;21.048;2022-09-09T16:48:49;42.80;;;23.70;;
31768;SDS011;18342;52.132;21.048;2022-09-09T16:51:25;39.43;;;22.97;;
31768;SDS011;18342;52.132;21.048;2022-09-09T16:53:53;35.70;;;22.97;;
31768;SDS011;18342;52.132;21.048;2022-09-09T16:56:21;42.33;;;25.07;;
31768;SDS011;18342;52.132;21.048;2022-09-09T16:58:50;36.63;;;23.83;;
31768;SDS011;18342;52.132;21.048;2022-09-09T17:01:17;41.10;;;24.13;;
31768;SDS011;18342;52.132;21.048;2022-09-09T17:03:43;39.70;;;24.13;;
31768;SDS011;18342;52.132;21.048;2022-09-09T17:06:14;41.37;;;22.40;;
31768;SDS011;18342;52.132;21.048;2022-09-09T17:08:40;40.70;;;24.63;;
31768;SDS011;18342;52.132;21.048;2022-09-09T17:11:17;45.83;;;22.87;;
31768;SDS011;18342;52.132;21.048;2022-09-09T17:13:44;43.77;;;23.90;;
31768;SDS011;18342;52.132;21.048;2022-09-09T17:16:11;41.20;;;23.03;;
31768;SDS011;18342;52.132;21.048;2022-09-09T17:18:38;42.67;;;23.90;;
31768;SDS011;18342;52.132;21.048;2022-09-09T17:21:08;39.17;;;23.80;;
31768;SDS011;18342;52.132;21.048;2022-09-09T17:23:38;45.43;;;24.00;;
31768;SDS011;18342;52.132;21.048;2022-09-09T17:26:05;38.90;;;23.77;;
31768;SDS011;18342;52.132;21.048;2022-09-09T17:28:38;38.80;;;24.10;;
31768;SDS011;18342;52.132;21.048;2022-09-09T17:31:06;41.77;;;25.50;;
31768;SDS011;18342;52.132;21.048;2022-09-09T17:33:34;43.03;;;24.63;;
31768;SDS011;18342;52.132;21.048;2022-09-09T17:36:06;44.20;;;25.23;;
31768;SDS011;18342;52.132;21.048;2022-09-09T17:38:40;48.00;;;25.47;;
31768;SDS011;18342;52.132;21.048;2022-09-09T17:41:29;42.83;;;25.30;;